International Virtual Aviation Organisation

Russian Federation and Kazakhstan MCD

 

Карточка аэропорта UUDD

Внимание!
Информация на этой странице в стадии наполнения.
Если вы не увидели какой-то информации, или заметили неточность - пожалуйста сообщите нам!
Спасибо!
Команда RU-STAFF
Название аэропортаДомодедово
Название аэропорта (англ.)Domodedovo
Превышение594 ft. (181.1 m.)
Координаты55°24.516', 37°54.384'
Высота перехода1200 m
Эшелон переходаBy ATC
Коды ответчика1540-1577
Зона ОрВДМосква РПИ (UUWV)
Данные METARUUDD 242300Z 27003MPS CAVOK M01/M02 Q1005 R32L/290095 NOSIG
Проноз погоды (TAF)UUDD 241959Z 2421/2603 28007MPS 6000 FEW004 BKN011 TX05/2511Z TNM03/2503Z TEMPO 2421/2506 3100 -SHSN BR SCT003 BKN015CB BECMG 2507/2509 SCT020 BECMG 2520/2522 19006MPS
NOTAMshow/hide NOTAM
AWOS   TABLE

Информация о ВПП

ВПП Длина ВПП (м.) Покрытие Курс ВПП Частота ILS
14L3793Бетон136108.5
32R3793Бетон316111.9
14R3500Цементобетон136110.1
32L3500Цементобетон316109.3

Диспетчерские позиции

Позывной Наименование органа УВД Частота
UUDD_GNDДомодедово-Перрон119.000
UUDD_R_APPДомодедово-Круг127.700
UUDD_TWRДомодедово-Вышка119.700
UUDD_DELДомодедово-Деливери 129.150
UUDDFM1Машина сопровождения119.000



Спутниковое изображение